createdAt,value
2023-02-12T00:01:40.365Z,8.00
2023-02-12T00:04:08.624Z,8.10
2023-02-12T00:06:37.116Z,7.70
2023-02-12T00:09:05.531Z,7.80
2023-02-12T00:11:33.877Z,7.70
2023-02-12T00:14:05.106Z,8.00
2023-02-12T00:16:34.797Z,7.70
2023-02-12T00:19:03.084Z,7.80
2023-02-12T00:21:31.430Z,7.70
2023-02-12T00:23:59.827Z,7.70
2023-02-12T00:26:28.269Z,8.10
2023-02-12T00:28:56.664Z,7.70
2023-02-12T00:31:28.494Z,7.70
2023-02-12T00:34:00.934Z,7.70
2023-02-12T00:36:31.966Z,8.10
2023-02-12T00:39:01.562Z,7.70
2023-02-12T00:41:30.233Z,7.70
2023-02-12T00:43:58.598Z,7.70
2023-02-12T00:46:27.061Z,7.70
2023-02-12T00:48:55.656Z,7.80
2023-02-12T00:51:25.459Z,7.70
2023-02-12T00:53:53.988Z,7.70
2023-02-12T00:56:22.483Z,7.90
2023-02-12T00:58:51.027Z,8.00
2023-02-12T01:01:19.779Z,7.70
2023-02-12T01:03:48.181Z,7.70
2023-02-12T01:06:16.541Z,7.70
2023-02-12T01:08:46.199Z,7.70
2023-02-12T01:11:15.008Z,7.70
2023-02-12T01:13:43.294Z,7.90
2023-02-12T01:16:18.153Z,7.70
2023-02-12T01:18:48.059Z,7.70
2023-02-12T01:21:19.169Z,7.70
2023-02-12T01:23:49.852Z,7.70
2023-02-12T01:26:19.786Z,7.80
2023-02-12T01:28:52.358Z,7.80
2023-02-12T01:31:23.132Z,7.70
2023-02-12T01:33:54.354Z,8.00
2023-02-12T01:36:23.146Z,7.80
2023-02-12T01:38:52.884Z,7.70
2023-02-12T01:41:24.147Z,8.00
2023-02-12T01:44:12.100Z,7.70
2023-02-12T01:46:41.530Z,7.70
2023-02-12T01:49:14.833Z,7.70
2023-02-12T01:51:45.391Z,7.70
2023-02-12T01:54:18.301Z,8.10
2023-02-12T01:56:46.838Z,7.70
2023-02-12T01:59:15.395Z,8.00
2023-02-12T02:01:44.710Z,7.70
2023-02-12T02:04:18.587Z,8.00
2023-02-12T02:06:52.176Z,7.70
2023-02-12T02:09:22.208Z,8.00
2023-02-12T02:12:08.009Z,7.70
2023-02-12T02:14:36.590Z,8.00
2023-02-12T02:17:34.403Z,8.10
2023-02-12T02:20:43.898Z,7.70
2023-02-12T02:23:41.528Z,7.70
2023-02-12T02:26:51.954Z,7.70
2023-02-12T02:29:45.580Z,7.70
2023-02-12T02:32:20.274Z,7.70
2023-02-12T02:34:57.271Z,7.70
2023-02-12T02:37:30.526Z,7.70
2023-02-12T02:40:06.500Z,7.70
2023-02-12T02:42:40.695Z,7.90
2023-02-12T02:45:14.880Z,8.00
2023-02-12T02:47:51.285Z,7.70
2023-02-12T02:50:24.623Z,7.70
2023-02-12T02:52:58.673Z,7.70
2023-02-12T02:55:32.874Z,7.90
2023-02-12T02:58:07.562Z,7.70
2023-02-12T03:00:40.324Z,7.70
2023-02-12T03:03:19.132Z,7.80
2023-02-12T03:05:51.295Z,8.00
2023-02-12T03:08:25.238Z,7.70
2023-02-12T03:10:58.008Z,7.70
2023-02-12T03:13:33.742Z,7.70
2023-02-12T03:16:08.607Z,8.00
2023-02-12T03:18:45.132Z,7.90
2023-02-12T03:21:18.542Z,7.70
2023-02-12T03:23:54.325Z,7.70
2023-02-12T03:26:28.288Z,7.70
2023-02-12T03:28:56.597Z,7.80
2023-02-12T03:31:37.202Z,7.90
2023-02-12T03:34:12.932Z,7.70
2023-02-12T03:36:52.639Z,7.70
2023-02-12T03:39:30.686Z,7.70
2023-02-12T03:42:06.606Z,7.70
2023-02-12T03:44:50.142Z,7.70
2023-02-12T03:47:26.681Z,7.90
2023-02-12T03:50:04.755Z,7.90
2023-02-12T03:52:33.180Z,7.70
2023-02-12T03:55:01.708Z,8.00
2023-02-12T03:57:35.675Z,7.70
2023-02-12T04:00:08.192Z,7.70
2023-02-12T04:02:43.287Z,8.00
2023-02-12T04:05:21.719Z,7.70
2023-02-12T04:07:51.905Z,7.70
2023-02-12T04:10:29.685Z,7.70
2023-02-12T04:13:09.824Z,7.70
2023-02-12T04:16:08.867Z,7.70
2023-02-12T04:18:43.586Z,7.70
2023-02-12T04:21:25.438Z,7.70
2023-02-12T04:24:07.339Z,8.00
2023-02-12T04:26:44.125Z,7.70
2023-02-12T04:29:23.336Z,7.70
2023-02-12T04:31:57.527Z,7.70
2023-02-12T04:34:33.800Z,7.70
2023-02-12T04:37:09.778Z,7.90
2023-02-12T04:39:41.347Z,7.90
2023-02-12T04:42:10.427Z,7.70
2023-02-12T04:44:44.447Z,7.70
2023-02-12T04:47:14.212Z,7.90
2023-02-12T04:49:42.784Z,7.80
2023-02-12T04:52:12.553Z,7.80
2023-02-12T04:54:40.975Z,7.90
2023-02-12T04:57:10.370Z,7.70
2023-02-12T04:59:38.754Z,7.70
2023-02-12T05:02:07.196Z,7.90
2023-02-12T05:04:35.621Z,7.90
2023-02-12T05:07:04.080Z,7.70
2023-02-12T05:09:34.223Z,7.80
2023-02-12T05:12:02.646Z,7.90
2023-02-12T05:14:31.101Z,7.80
2023-02-12T05:16:59.574Z,7.70
2023-02-12T05:19:28.064Z,7.80
2023-02-12T05:21:56.436Z,7.70
2023-02-12T05:24:24.962Z,7.80
2023-02-12T05:26:54.748Z,7.60
2023-02-12T05:29:23.316Z,7.60
2023-02-12T05:31:51.750Z,7.70
2023-02-12T05:34:20.390Z,7.60
2023-02-12T05:36:48.752Z,7.60
2023-02-12T05:39:18.034Z,7.60
2023-02-12T05:41:46.501Z,7.80
2023-02-12T05:44:16.422Z,7.60
2023-02-12T05:46:45.323Z,7.60
2023-02-12T05:49:13.780Z,7.80
2023-02-12T05:51:42.259Z,7.70
2023-02-12T05:54:12.132Z,7.60
2023-02-12T05:56:45.376Z,7.60
2023-02-12T05:59:19.201Z,7.60
2023-02-12T06:01:50.237Z,7.50
2023-02-12T06:04:23.722Z,7.50
2023-02-12T06:06:53.372Z,7.50
2023-02-12T06:09:21.867Z,7.50
2023-02-12T06:11:50.265Z,7.50
2023-02-12T06:14:21.940Z,7.70
2023-02-12T06:16:52.748Z,7.50
2023-02-12T06:19:22.164Z,7.60
2023-02-12T06:21:50.603Z,7.40
2023-02-12T06:24:19.640Z,7.50
2023-02-12T06:26:50.520Z,7.40
2023-02-12T06:29:21.250Z,7.40
2023-02-12T06:31:50.374Z,7.60
2023-02-12T06:34:19.167Z,7.40
2023-02-12T06:36:48.986Z,7.60
2023-02-12T06:39:18.535Z,7.40
2023-02-12T06:41:46.869Z,7.50
2023-02-12T06:44:15.244Z,7.40
2023-02-12T06:46:45.082Z,7.50
2023-02-12T06:49:14.571Z,7.40
2023-02-12T06:51:43.381Z,7.50
2023-02-12T06:54:15.987Z,7.30
2023-02-12T06:56:44.573Z,7.30
2023-02-12T06:59:16.506Z,7.30
2023-02-12T07:01:46.486Z,7.30
2023-02-12T07:04:15.188Z,7.30
2023-02-12T07:06:43.663Z,7.30
2023-02-12T07:09:12.090Z,7.30
2023-02-12T07:11:40.631Z,7.40
2023-02-12T07:14:09.368Z,7.30
2023-02-12T07:16:37.746Z,7.30
2023-02-12T07:19:07.567Z,7.50
2023-02-12T07:21:35.971Z,7.30
2023-02-12T07:24:04.639Z,7.50
2023-02-12T07:26:33.077Z,7.30
2023-02-12T07:29:01.487Z,7.30
2023-02-12T07:31:30.081Z,7.30
2023-02-12T07:34:00.863Z,7.30
2023-02-12T07:36:34.031Z,7.30
2023-02-12T07:39:02.696Z,7.30
2023-02-12T07:41:33.384Z,7.40
2023-02-12T07:44:06.857Z,7.30
2023-02-12T07:46:38.162Z,7.40
2023-02-12T07:49:10.854Z,7.40
2023-02-12T07:51:40.648Z,7.40
2023-02-12T07:54:09.312Z,7.40
2023-02-12T07:56:39.914Z,7.70
2023-02-12T07:59:12.310Z,7.40
2023-02-12T08:01:43.375Z,7.50
2023-02-12T08:04:15.422Z,7.50
2023-02-12T08:06:47.253Z,7.70
2023-02-12T08:09:18.311Z,7.50
2023-02-12T08:11:47.503Z,7.70
2023-02-12T08:14:18.147Z,7.50
2023-02-12T08:16:48.689Z,7.60
2023-02-12T08:19:21.136Z,7.60
2023-02-12T08:21:54.846Z,7.60
2023-02-12T08:24:23.661Z,7.90
2023-02-12T08:26:52.878Z,7.70
2023-02-12T08:29:24.284Z,7.90
2023-02-12T08:31:58.410Z,7.70
2023-02-12T08:34:33.573Z,7.70
2023-02-12T08:37:03.505Z,7.80
2023-02-12T08:39:32.349Z,8.00
2023-02-12T08:42:01.796Z,7.80
2023-02-12T08:44:30.794Z,8.00
2023-02-12T08:46:59.192Z,7.90
2023-02-12T08:49:29.767Z,7.90
2023-02-12T08:51:59.797Z,8.00
2023-02-12T08:54:31.584Z,8.20
2023-02-12T08:57:01.852Z,8.00
2023-02-12T08:59:31.358Z,8.10
2023-02-12T09:02:00.597Z,8.20
2023-02-12T09:04:30.623Z,8.20
2023-02-12T09:06:59.290Z,8.20
2023-02-12T09:09:29.051Z,8.20
2023-02-12T09:11:57.449Z,8.10
2023-02-12T09:14:25.792Z,8.30
2023-02-12T09:16:58.493Z,8.20
2023-02-12T09:19:27.377Z,8.30
2023-02-12T09:21:57.214Z,8.30
2023-02-12T09:24:27.544Z,8.30
2023-02-12T09:26:57.774Z,8.50
2023-02-12T09:29:26.344Z,8.30
2023-02-12T09:31:54.839Z,8.60
2023-02-12T09:34:23.291Z,8.40
2023-02-12T09:36:51.676Z,8.70
2023-02-12T09:39:20.088Z,8.50
2023-02-12T09:42:27.784Z,8.80
2023-02-12T09:45:08.543Z,8.60
2023-02-12T09:47:45.644Z,8.80
2023-02-12T09:50:30.406Z,8.90
2023-02-12T09:52:59.337Z,8.70
2023-02-12T09:55:32.482Z,8.70
2023-02-12T09:58:05.399Z,8.70
2023-02-12T10:00:34.066Z,8.90
2023-02-12T10:03:05.599Z,8.80
2023-02-12T10:05:40.635Z,8.90
2023-02-12T10:08:36.625Z,8.90
2023-02-12T10:11:31.165Z,8.90
2023-02-12T10:14:16.893Z,9.00
2023-02-12T10:16:53.239Z,9.10
2023-02-12T10:19:45.733Z,9.00
2023-02-12T10:22:20.905Z,9.10
2023-02-12T10:25:10.400Z,9.10
2023-02-12T10:27:42.686Z,9.10
2023-02-12T10:30:22.956Z,9.20
2023-02-12T10:32:56.402Z,9.20
2023-02-12T10:35:26.404Z,9.20
2023-02-12T10:38:00.395Z,9.20
2023-02-12T10:40:34.028Z,9.40
2023-02-12T10:43:03.848Z,9.30
2023-02-12T10:45:36.263Z,9.30
2023-02-12T10:48:11.444Z,9.40
2023-02-12T10:50:57.211Z,9.40
2023-02-12T10:53:28.933Z,9.50
2023-02-12T10:56:13.641Z,9.70
2023-02-12T10:58:51.627Z,9.70
2023-02-12T11:01:26.276Z,9.60
2023-02-12T11:03:55.345Z,9.60
2023-02-12T11:06:26.563Z,9.90
2023-02-12T11:08:55.996Z,9.90
2023-02-12T11:11:26.684Z,9.90
2023-02-12T11:13:59.618Z,9.80
2023-02-12T11:16:35.890Z,10.00
2023-02-12T11:19:06.700Z,9.90
2023-02-12T11:21:36.736Z,10.00
2023-02-12T11:24:32.808Z,10.00
2023-02-12T11:27:23.012Z,10.10
2023-02-12T11:30:16.134Z,10.10
2023-02-12T11:32:46.658Z,10.20
2023-02-12T11:35:24.095Z,10.40
2023-02-12T11:37:56.064Z,10.50
2023-02-12T11:40:26.942Z,10.40
2023-02-12T11:42:59.382Z,10.40
2023-02-12T11:45:33.696Z,10.50
2023-02-12T11:48:04.129Z,10.50
2023-02-12T11:50:34.221Z,10.60
2023-02-12T11:53:06.991Z,10.60
2023-02-12T11:55:37.968Z,10.70
2023-02-12T11:58:15.484Z,10.70
2023-02-12T12:00:53.099Z,10.80
2023-02-12T12:03:28.605Z,10.80
2023-02-12T12:06:04.151Z,10.90
2023-02-12T12:08:40.710Z,10.90
2023-02-12T12:11:16.565Z,11.00
2023-02-12T12:13:51.318Z,11.20
2023-02-12T12:16:46.760Z,11.10
2023-02-12T12:19:41.167Z,11.10
2023-02-12T12:22:20.069Z,11.20
2023-02-12T12:24:54.970Z,11.20
2023-02-12T12:27:47.076Z,11.30
2023-02-12T12:30:23.805Z,11.30
2023-02-12T12:32:56.171Z,11.40
2023-02-12T12:35:38.780Z,11.60
2023-02-12T12:38:20.079Z,11.50
2023-02-12T12:41:05.022Z,11.50
2023-02-12T12:43:47.925Z,11.60
2023-02-12T12:46:36.412Z,11.60
2023-02-12T12:49:36.011Z,11.70
2023-02-12T12:52:46.383Z,11.70
2023-02-12T12:55:45.818Z,11.80
2023-02-12T12:58:25.348Z,11.80
2023-02-12T13:01:15.377Z,11.90
2023-02-12T13:04:23.172Z,11.80
2023-02-12T13:07:04.095Z,11.90
2023-02-12T13:10:09.702Z,11.90
2023-02-12T13:12:57.616Z,11.90
2023-02-12T13:15:35.134Z,11.90
2023-02-12T13:18:22.135Z,11.90
2023-02-12T13:20:57.599Z,12.10
2023-02-12T13:23:38.347Z,12.00
2023-02-12T13:26:17.465Z,12.00
2023-02-12T13:28:52.056Z,12.00
2023-02-12T13:31:33.160Z,12.00
2023-02-12T13:34:06.512Z,12.00
2023-02-12T13:36:37.939Z,12.00
2023-02-12T13:39:15.811Z,12.20
2023-02-12T13:41:57.483Z,12.10
2023-02-12T13:44:33.940Z,12.10
2023-02-12T13:47:14.654Z,12.10
2023-02-12T13:49:51.294Z,12.10
2023-02-12T13:52:30.392Z,12.20
2023-02-12T13:55:23.144Z,12.20
2023-02-12T13:58:46.742Z,12.20
2023-02-12T14:01:37.003Z,12.30
2023-02-12T14:04:30.176Z,12.30
2023-02-12T14:07:06.656Z,12.30
2023-02-12T14:09:40.554Z,12.40
2023-02-12T14:12:12.318Z,12.40
2023-02-12T14:14:45.295Z,12.40
2023-02-12T14:17:51.368Z,12.40
2023-02-12T14:20:28.745Z,12.60
2023-02-12T14:23:02.353Z,12.50
2023-02-12T14:25:43.706Z,12.50
2023-02-12T14:28:47.543Z,12.50
2023-02-12T14:31:44.355Z,12.50
2023-02-12T14:34:46.030Z,12.50
2023-02-12T14:37:35.980Z,12.50
2023-02-12T14:40:44.425Z,12.50
2023-02-12T14:43:31.071Z,12.50
2023-02-12T14:46:35.278Z,12.50
2023-02-12T14:49:06.201Z,12.50
2023-02-12T14:51:40.715Z,12.50
2023-02-12T14:54:18.147Z,12.50
2023-02-12T14:56:50.803Z,12.50
2023-02-12T14:59:24.270Z,12.50
2023-02-12T15:01:54.682Z,12.50
2023-02-12T15:04:29.050Z,12.60
2023-02-12T15:07:02.812Z,12.50
2023-02-12T15:09:36.466Z,12.50
2023-02-12T15:12:13.689Z,12.50
2023-02-12T15:14:47.553Z,12.50
2023-02-12T15:17:22.320Z,12.50
2023-02-12T15:19:59.928Z,12.50
2023-02-12T15:22:32.972Z,12.50
2023-02-12T15:25:21.355Z,12.60
2023-02-12T15:27:51.472Z,12.50
2023-02-12T15:30:26.220Z,12.50
2023-02-12T15:32:58.461Z,12.40
2023-02-12T15:35:31.543Z,12.50
2023-02-12T15:38:02.017Z,12.40
2023-02-12T15:40:32.161Z,12.40
2023-02-12T15:43:03.120Z,12.40
2023-02-12T15:45:34.206Z,12.40
2023-02-12T15:48:13.325Z,12.30
2023-02-12T15:50:53.828Z,12.30
2023-02-12T15:53:25.359Z,12.30
2023-02-12T15:55:54.362Z,12.30
2023-02-12T15:58:26.090Z,12.20
2023-02-12T16:00:57.090Z,12.20
2023-02-12T16:03:28.471Z,12.20
2023-02-12T16:06:04.559Z,12.10
2023-02-12T16:08:34.833Z,12.20
2023-02-12T16:11:13.827Z,12.10
2023-02-12T16:13:47.482Z,12.00
2023-02-12T16:16:25.962Z,12.00
2023-02-12T16:19:18.924Z,12.00
2023-02-12T16:21:52.473Z,11.90
2023-02-12T16:24:28.590Z,11.90
2023-02-12T16:26:59.414Z,12.00
2023-02-12T16:29:27.825Z,11.80
2023-02-12T16:31:59.323Z,11.70
2023-02-12T16:34:35.550Z,11.70
2023-02-12T16:37:43.752Z,11.70
2023-02-12T16:40:28.174Z,11.60
2023-02-12T16:43:26.254Z,11.50
2023-02-12T16:46:06.683Z,11.50
2023-02-12T16:48:41.778Z,11.40
2023-02-12T16:51:24.822Z,11.40
2023-02-12T16:54:00.378Z,11.30
2023-02-12T16:56:32.658Z,11.20
2023-02-12T16:59:02.872Z,11.30
2023-02-12T17:01:34.505Z,11.10
2023-02-12T17:04:07.273Z,11.10
2023-02-12T17:06:35.780Z,11.00
2023-02-12T17:09:05.665Z,11.00
2023-02-12T17:11:34.084Z,10.90
2023-02-12T17:14:02.638Z,10.90
2023-02-12T17:16:32.303Z,10.80
2023-02-12T17:19:01.491Z,10.80
2023-02-12T17:21:37.894Z,10.70
2023-02-12T17:24:10.632Z,10.70
2023-02-12T17:26:39.070Z,10.60
2023-02-12T17:29:07.788Z,10.60
2023-02-12T17:31:37.702Z,10.50
2023-02-12T17:34:06.862Z,10.50
2023-02-12T17:36:36.068Z,10.40
2023-02-12T17:39:08.269Z,10.40
2023-02-12T17:41:36.688Z,10.30
2023-02-12T17:44:05.598Z,10.30
2023-02-12T17:46:34.756Z,10.20
2023-02-12T17:49:03.214Z,10.20
2023-02-12T17:51:31.803Z,10.10
2023-02-12T17:54:00.214Z,10.10
2023-02-12T17:56:30.043Z,10.00
2023-02-12T17:58:58.614Z,10.00
2023-02-12T18:01:27.770Z,9.90
2023-02-12T18:03:58.922Z,9.90
2023-02-12T18:06:30.182Z,9.80
2023-02-12T18:08:59.678Z,9.80
2023-02-12T18:11:29.951Z,9.70
2023-02-12T18:14:00.375Z,9.70
2023-02-12T18:16:31.609Z,9.80
2023-02-12T18:19:01.374Z,9.60
2023-02-12T18:21:29.754Z,9.50
2023-02-12T18:23:58.484Z,9.50
2023-02-12T18:26:26.946Z,9.50
2023-02-12T18:28:58.398Z,9.50
2023-02-12T18:31:27.451Z,9.40
2023-02-12T18:33:56.248Z,9.30
2023-02-12T18:36:25.080Z,9.30
2023-02-12T18:38:54.080Z,9.30
2023-02-12T18:41:25.159Z,9.40
2023-02-12T18:43:54.735Z,9.20
2023-02-12T18:46:27.666Z,9.20
2023-02-12T18:48:56.653Z,9.20
2023-02-12T18:51:28.114Z,9.10
2023-02-12T18:54:01.433Z,9.00
2023-02-12T18:56:31.461Z,9.10
2023-02-12T18:59:02.564Z,9.00
2023-02-12T19:01:33.845Z,9.00
2023-02-12T19:04:04.867Z,8.90
2023-02-12T19:06:35.327Z,9.00
2023-02-12T19:09:05.718Z,8.80
2023-02-12T19:11:34.222Z,8.80
2023-02-12T19:14:02.704Z,8.80
2023-02-12T19:16:33.538Z,8.70
2023-02-12T19:19:02.890Z,8.70
2023-02-12T19:21:31.934Z,8.70
2023-02-12T19:24:03.121Z,8.70
2023-02-12T19:26:32.829Z,8.60
2023-02-12T19:29:02.521Z,8.70
2023-02-12T19:31:35.333Z,8.60
2023-02-12T19:34:07.608Z,8.50
2023-02-12T19:36:38.021Z,8.50
2023-02-12T19:39:07.238Z,8.60
2023-02-12T19:41:40.887Z,8.40
2023-02-12T19:44:14.433Z,8.40
2023-02-12T19:46:45.603Z,8.30
2023-02-12T19:49:18.171Z,8.50
2023-02-12T19:51:46.981Z,8.50
2023-02-12T19:54:18.059Z,8.30
2023-02-12T19:56:47.200Z,8.30
2023-02-12T19:59:19.036Z,8.30
2023-02-12T20:01:49.844Z,8.20
2023-02-12T20:04:21.586Z,8.20
2023-02-12T20:06:52.581Z,8.30
2023-02-12T20:09:23.362Z,8.10
2023-02-12T20:11:52.380Z,8.10
2023-02-12T20:14:24.738Z,8.10
2023-02-12T20:16:58.533Z,8.20
2023-02-12T20:19:30.081Z,8.00
2023-02-12T20:22:01.553Z,8.00
2023-02-12T20:24:32.388Z,8.00
2023-02-12T20:27:03.091Z,8.10
2023-02-12T20:29:32.776Z,7.90
2023-02-12T20:32:02.732Z,7.90
2023-02-12T20:34:36.656Z,7.90
2023-02-12T20:37:11.611Z,7.80
2023-02-12T20:39:41.867Z,7.80
2023-02-12T20:42:12.002Z,7.80
2023-02-12T20:44:40.766Z,7.90
2023-02-12T20:47:10.554Z,7.70
2023-02-12T20:49:39.301Z,7.80
2023-02-12T20:52:07.866Z,7.70
2023-02-12T20:54:38.022Z,7.70
2023-02-12T20:57:07.577Z,7.60
2023-02-12T20:59:36.309Z,7.60
2023-02-12T21:02:04.896Z,7.60
2023-02-12T21:04:34.906Z,7.70
2023-02-12T21:07:03.433Z,7.50
2023-02-12T21:09:32.128Z,7.50
2023-02-12T21:12:00.457Z,7.50
2023-02-12T21:14:29.176Z,7.60
2023-02-12T21:16:58.139Z,7.40
2023-02-12T21:19:28.324Z,7.40
2023-02-12T21:21:58.415Z,7.40
2023-02-12T21:24:27.700Z,7.50
2023-02-12T21:26:57.516Z,7.40
2023-02-12T21:29:27.549Z,7.30
2023-02-12T21:31:56.243Z,7.30
2023-02-12T21:34:25.239Z,7.30
2023-02-12T21:36:57.763Z,7.30
2023-02-12T21:39:28.563Z,7.30
2023-02-12T21:42:00.121Z,7.30
2023-02-12T21:44:29.613Z,7.30
2023-02-12T21:46:59.106Z,7.30
2023-02-12T21:49:28.532Z,7.20
2023-02-12T21:52:02.134Z,7.30
2023-02-12T21:54:32.009Z,7.10
2023-02-12T21:57:01.000Z,7.30
2023-02-12T21:59:31.884Z,7.10
2023-02-12T22:02:02.013Z,7.10
2023-02-12T22:04:32.335Z,7.10
2023-02-12T22:07:03.515Z,7.00
2023-02-12T22:09:32.148Z,7.10
2023-02-12T22:12:00.847Z,7.00
2023-02-12T22:14:29.713Z,6.90
2023-02-12T22:16:59.536Z,6.90
2023-02-12T22:19:29.154Z,6.90
2023-02-12T22:21:57.818Z,6.90
2023-02-12T22:24:31.248Z,6.90
2023-02-12T22:26:59.664Z,7.00
2023-02-12T22:29:28.148Z,6.80
2023-02-12T22:31:58.406Z,6.80
2023-02-12T22:34:26.922Z,6.80
2023-02-12T22:36:55.554Z,6.80
2023-02-12T22:39:29.632Z,6.90
2023-02-12T22:41:59.655Z,6.70
2023-02-12T22:44:28.839Z,6.80
2023-02-12T22:46:58.795Z,6.70
2023-02-12T22:49:28.990Z,6.70
2023-02-12T22:51:57.729Z,6.70
2023-02-12T22:54:26.643Z,6.70
2023-02-12T22:56:55.871Z,6.60
2023-02-12T22:59:25.908Z,6.60
2023-02-12T23:01:54.456Z,6.70
2023-02-12T23:04:23.937Z,6.60
2023-02-12T23:06:52.741Z,6.60
2023-02-12T23:09:21.834Z,6.60
2023-02-12T23:11:50.555Z,6.70
2023-02-12T23:14:19.557Z,6.50
2023-02-12T23:16:49.549Z,6.50
2023-02-12T23:19:18.205Z,6.60
2023-02-12T23:21:46.810Z,6.50
2023-02-12T23:24:16.218Z,6.50
2023-02-12T23:26:44.931Z,6.40
2023-02-12T23:29:13.876Z,6.40
2023-02-12T23:31:42.586Z,6.40
2023-02-12T23:34:12.638Z,6.40
2023-02-12T23:36:41.203Z,6.40
2023-02-12T23:39:12.069Z,6.50
2023-02-12T23:41:40.834Z,6.30
2023-02-12T23:44:10.839Z,6.30
2023-02-12T23:46:39.589Z,6.30
2023-02-12T23:49:08.393Z,6.40
2023-02-12T23:51:38.334Z,6.30
2023-02-12T23:54:06.959Z,6.30
2023-02-12T23:56:35.415Z,6.30
2023-02-12T23:59:03.976Z,6.20
